Castleton, Vermont
Current Conditions -  °F | °C
As of 1:55 AM on Monday 22 Dec 2014 (Local Time) from KRUT Reporting Station
Overcast Overcast  
Wind Chill: -4°   Ceiling: 3600
Heat Index: -4°   Visibility: 8mi
Dew Point: -6°   Wind: 0mph
Humidity: 86%   Direction: NA
Pressure: 30.34"   Gusts: NA
Location:  43.61°N, 73.18°W
Report Text: KRUT 220655Z 00000KT 8SM OVC036 M04/M06 A3034 RMK AO1
Loading
Personal Weather Stations






























Interactive Weather Map New forecast layout! Learn more

10-Day Weather Forecast

Advertisements
Track Severe Weather on mobile